sensor_id;sensor_type;location;lat;lon;timestamp;pressure;altitude;pressure_sealevel;temperature;humidity
54920;BME280;63804;53.120;8.764;2022-12-10T00:01:13;100938.59;;;3.48;47.63
54920;BME280;63804;53.120;8.764;2022-12-10T00:03:40;100935.44;;;3.41;47.90
54920;BME280;63804;53.120;8.764;2022-12-10T00:06:09;100945.34;;;3.69;47.32
54920;BME280;63804;53.120;8.764;2022-12-10T00:08:35;100944.53;;;3.69;47.18
54920;BME280;63804;53.120;8.764;2022-12-10T00:11:05;100942.94;;;3.68;47.19
54920;BME280;63804;53.120;8.764;2022-12-10T00:13:33;100945.19;;;3.80;46.94
54920;BME280;63804;53.120;8.764;2022-12-10T00:16:00;100940.84;;;3.84;47.00
54920;BME280;63804;53.120;8.764;2022-12-10T00:18:26;100929.06;;;3.75;47.20
54920;BME280;63804;53.120;8.764;2022-12-10T00:20:52;100942.19;;;3.81;47.09
54920;BME280;63804;53.120;8.764;2022-12-10T00:23:18;100933.38;;;3.76;47.01
54920;BME280;63804;53.120;8.764;2022-12-10T00:25:44;100942.56;;;3.75;47.09
54920;BME280;63804;53.120;8.764;2022-12-10T00:28:09;100939.88;;;3.75;47.01
54920;BME280;63804;53.120;8.764;2022-12-10T00:30:35;100934.31;;;3.85;46.96
54920;BME280;63804;53.120;8.764;2022-12-10T00:33:01;100931.91;;;3.40;47.71
54920;BME280;63804;53.120;8.764;2022-12-10T00:35:27;100930.81;;;3.22;48.36
54920;BME280;63804;53.120;8.764;2022-12-10T00:37:53;100935.84;;;3.53;47.59
54920;BME280;63804;53.120;8.764;2022-12-10T00:40:18;100930.75;;;3.70;47.12
54920;BME280;63804;53.120;8.764;2022-12-10T00:42:44;100927.00;;;3.66;47.23
54920;BME280;63804;53.120;8.764;2022-12-10T00:45:10;100930.69;;;3.76;46.95
54920;BME280;63804;53.120;8.764;2022-12-10T00:47:35;100935.69;;;3.63;47.22
54920;BME280;63804;53.120;8.764;2022-12-10T00:50:01;100932.28;;;3.58;47.31
54920;BME280;63804;53.120;8.764;2022-12-10T00:52:27;100931.91;;;3.64;47.32
54920;BME280;63804;53.120;8.764;2022-12-10T00:54:53;100934.53;;;3.69;47.16
54920;BME280;63804;53.120;8.764;2022-12-10T00:57:18;100938.69;;;3.38;47.59
54920;BME280;63804;53.120;8.764;2022-12-10T00:59:44;100935.91;;;3.48;47.71
54920;BME280;63804;53.120;8.764;2022-12-10T01:02:10;100941.63;;;3.65;47.11
54920;BME280;63804;53.120;8.764;2022-12-10T01:04:35;100940.72;;;3.70;47.19
54920;BME280;63804;53.120;8.764;2022-12-10T01:07:01;100940.38;;;3.77;46.97
54920;BME280;63804;53.120;8.764;2022-12-10T01:09:28;100941.91;;;3.83;46.61
54920;BME280;63804;53.120;8.764;2022-12-10T01:11:57;100950.31;;;3.62;46.95
54920;BME280;63804;53.120;8.764;2022-12-10T01:14:27;100955.47;;;3.59;47.36
54920;BME280;63804;53.120;8.764;2022-12-10T01:16:55;100953.94;;;3.71;46.83
54920;BME280;63804;53.120;8.764;2022-12-10T01:19:21;100955.91;;;3.66;47.13
54920;BME280;63804;53.120;8.764;2022-12-10T01:21:51;100958.81;;;3.50;47.22
54920;BME280;63804;53.120;8.764;2022-12-10T01:24:17;100954.88;;;3.62;47.17
54920;BME280;63804;53.120;8.764;2022-12-10T01:26:43;100966.38;;;3.48;47.17
54920;BME280;63804;53.120;8.764;2022-12-10T01:29:10;100957.66;;;3.32;47.64
54920;BME280;63804;53.120;8.764;2022-12-10T01:31:37;100970.13;;;3.52;47.54
54920;BME280;63804;53.120;8.764;2022-12-10T01:34:04;100967.94;;;3.74;46.83
54920;BME280;63804;53.120;8.764;2022-12-10T01:36:34;100968.00;;;3.68;46.84
54920;BME280;63804;53.120;8.764;2022-12-10T01:39:00;100969.34;;;3.71;46.71
54920;BME280;63804;53.120;8.764;2022-12-10T01:44:01;100974.03;;;3.84;46.57
54920;BME280;63804;53.120;8.764;2022-12-10T01:46:30;100982.91;;;3.66;46.70
54920;BME280;63804;53.120;8.764;2022-12-10T01:48:58;100980.75;;;3.44;47.44
54920;BME280;63804;53.120;8.764;2022-12-10T01:51:28;100984.06;;;3.35;47.55
54920;BME280;63804;53.120;8.764;2022-12-10T01:53:54;100987.53;;;3.65;46.89
54920;BME280;63804;53.120;8.764;2022-12-10T01:56:21;100983.56;;;3.77;46.51
54920;BME280;63804;53.120;8.764;2022-12-10T01:58:50;100989.78;;;3.77;46.25
54920;BME280;63804;53.120;8.764;2022-12-10T02:01:37;100984.47;;;3.91;46.15
54920;BME280;63804;53.120;8.764;2022-12-10T02:06:55;100992.84;;;3.89;46.00
54920;BME280;63804;53.120;8.764;2022-12-10T02:09:48;100985.84;;;3.88;46.23
54920;BME280;63804;53.120;8.764;2022-12-10T02:14:58;100990.94;;;3.71;46.26
54920;BME280;63804;53.120;8.764;2022-12-10T02:17:27;100993.56;;;3.57;46.67
54920;BME280;63804;53.120;8.764;2022-12-10T02:22:45;100993.94;;;3.69;46.61
54920;BME280;63804;53.120;8.764;2022-12-10T02:25:13;100984.75;;;3.70;46.23
54920;BME280;63804;53.120;8.764;2022-12-10T02:27:59;100988.38;;;3.61;46.12
54920;BME280;63804;53.120;8.764;2022-12-10T02:30:29;100989.47;;;3.60;46.26
54920;BME280;63804;53.120;8.764;2022-12-10T02:32:56;100997.28;;;3.61;46.12
54920;BME280;63804;53.120;8.764;2022-12-10T02:35:26;100989.75;;;3.58;46.32
54920;BME280;63804;53.120;8.764;2022-12-10T02:37:58;100990.25;;;3.60;46.15
54920;BME280;63804;53.120;8.764;2022-12-10T02:40:31;100987.44;;;3.70;45.74
54920;BME280;63804;53.120;8.764;2022-12-10T02:42:58;100991.22;;;3.69;45.61
54920;BME280;63804;53.120;8.764;2022-12-10T02:45:26;100993.34;;;3.73;45.47
54920;BME280;63804;53.120;8.764;2022-12-10T02:47:56;101000.34;;;3.74;45.21
54920;BME280;63804;53.120;8.764;2022-12-10T02:50:23;101005.75;;;3.74;45.14
54920;BME280;63804;53.120;8.764;2022-12-10T02:52:49;100994.84;;;3.84;44.80
54920;BME280;63804;53.120;8.764;2022-12-10T02:55:15;101008.44;;;3.74;45.19
54920;BME280;63804;53.120;8.764;2022-12-10T03:00:56;100999.69;;;3.82;44.79
54920;BME280;63804;53.120;8.764;2022-12-10T03:08:59;101000.66;;;3.72;44.31
54920;BME280;63804;53.120;8.764;2022-12-10T03:11:27;101002.41;;;3.82;44.57
54920;BME280;63804;53.120;8.764;2022-12-10T03:16:23;101001.59;;;3.62;44.83
54920;BME280;63804;53.120;8.764;2022-12-10T03:18:56;101003.00;;;3.79;44.68
54920;BME280;63804;53.120;8.764;2022-12-10T03:21:22;101001.38;;;3.78;44.38
54920;BME280;63804;53.120;8.764;2022-12-10T03:23:50;101002.41;;;3.82;44.51
54920;BME280;63804;53.120;8.764;2022-12-10T03:26:18;100994.84;;;3.84;44.46
54920;BME280;63804;53.120;8.764;2022-12-10T03:28:54;100993.13;;;3.69;44.42
54920;BME280;63804;53.120;8.764;2022-12-10T03:31:22;100999.25;;;3.75;44.19
54920;BME280;63804;53.120;8.764;2022-12-10T03:33:48;100994.91;;;3.79;44.09
54920;BME280;63804;53.120;8.764;2022-12-10T03:36:16;101001.91;;;3.80;44.09
54920;BME280;63804;53.120;8.764;2022-12-10T03:38:42;100999.84;;;3.71;44.20
54920;BME280;63804;53.120;8.764;2022-12-10T03:41:08;100996.63;;;3.69;43.98
54920;BME280;63804;53.120;8.764;2022-12-10T03:43:34;100992.56;;;3.72;44.06
54920;BME280;63804;53.120;8.764;2022-12-10T03:46:00;100991.38;;;3.78;44.09
54920;BME280;63804;53.120;8.764;2022-12-10T03:48:26;100984.63;;;3.81;43.94
54920;BME280;63804;53.120;8.764;2022-12-10T03:50:52;100983.78;;;3.80;43.94
54920;BME280;63804;53.120;8.764;2022-12-10T03:53:18;100985.75;;;3.75;43.81
54920;BME280;63804;53.120;8.764;2022-12-10T03:55:44;100981.16;;;3.75;43.39
54920;BME280;63804;53.120;8.764;2022-12-10T03:58:09;100981.91;;;3.81;43.53
54920;BME280;63804;53.120;8.764;2022-12-10T04:00:35;100987.09;;;3.77;43.58
54920;BME280;63804;53.120;8.764;2022-12-10T04:03:01;100987.41;;;3.51;44.16
54920;BME280;63804;53.120;8.764;2022-12-10T04:05:26;100984.41;;;3.53;44.15
54920;BME280;63804;53.120;8.764;2022-12-10T04:07:52;100980.72;;;3.68;43.45
54920;BME280;63804;53.120;8.764;2022-12-10T04:10:18;100985.38;;;3.62;43.78
54920;BME280;63804;53.120;8.764;2022-12-10T04:12:43;100988.59;;;3.64;43.41
54920;BME280;63804;53.120;8.764;2022-12-10T04:15:29;100992.31;;;3.68;43.29
54920;BME280;63804;53.120;8.764;2022-12-10T04:18:13;100991.16;;;3.75;42.55
54920;BME280;63804;53.120;8.764;2022-12-10T04:20:39;100992.09;;;3.65;42.35
54920;BME280;63804;53.120;8.764;2022-12-10T04:23:23;100994.22;;;3.68;42.42
54920;BME280;63804;53.120;8.764;2022-12-10T04:26:08;100993.88;;;3.75;42.23
54920;BME280;63804;53.120;8.764;2022-12-10T04:28:52;100990.78;;;3.62;42.50
54920;BME280;63804;53.120;8.764;2022-12-10T04:31:18;100987.44;;;3.70;42.36
54920;BME280;63804;53.120;8.764;2022-12-10T04:33:43;100980.06;;;3.76;42.31
54920;BME280;63804;53.120;8.764;2022-12-10T04:36:09;100981.41;;;3.79;42.04
54920;BME280;63804;53.120;8.764;2022-12-10T04:38:35;100993.56;;;3.76;41.89
54920;BME280;63804;53.120;8.764;2022-12-10T04:41:01;100987.97;;;3.73;42.07
54920;BME280;63804;53.120;8.764;2022-12-10T04:43:27;100982.41;;;3.83;42.20
54920;BME280;63804;53.120;8.764;2022-12-10T04:45:55;100984.34;;;3.58;42.57
54920;BME280;63804;53.120;8.764;2022-12-10T04:48:21;100983.84;;;3.56;42.88
54920;BME280;63804;53.120;8.764;2022-12-10T04:50:47;100979.09;;;3.67;42.29
54920;BME280;63804;53.120;8.764;2022-12-10T04:53:13;100991.44;;;3.73;42.19
54920;BME280;63804;53.120;8.764;2022-12-10T04:55:38;100986.19;;;3.63;42.70
54920;BME280;63804;53.120;8.764;2022-12-10T04:58:04;100987.63;;;3.55;42.68
54920;BME280;63804;53.120;8.764;2022-12-10T05:00:29;100984.16;;;3.74;42.04
54920;BME280;63804;53.120;8.764;2022-12-10T05:02:55;100979.28;;;3.76;41.87
54920;BME280;63804;53.120;8.764;2022-12-10T05:05:21;100987.25;;;3.86;41.74
54920;BME280;63804;53.120;8.764;2022-12-10T05:07:46;100986.81;;;3.79;41.96
54920;BME280;63804;53.120;8.764;2022-12-10T05:10:12;100981.22;;;3.70;42.51
54920;BME280;63804;53.120;8.764;2022-12-10T05:12:38;100978.81;;;3.68;42.30
54920;BME280;63804;53.120;8.764;2022-12-10T05:15:04;100982.69;;;3.62;42.12
54920;BME280;63804;53.120;8.764;2022-12-10T05:17:30;100980.56;;;3.59;41.75
54920;BME280;63804;53.120;8.764;2022-12-10T05:19:56;100985.25;;;3.73;41.64
54920;BME280;63804;53.120;8.764;2022-12-10T05:22:21;100982.91;;;3.66;41.48
54920;BME280;63804;53.120;8.764;2022-12-10T05:25:06;100974.97;;;3.75;41.09
54920;BME280;63804;53.120;8.764;2022-12-10T05:27:33;100978.25;;;3.71;41.24
54920;BME280;63804;53.120;8.764;2022-12-10T05:29:59;100976.94;;;3.69;41.13
54920;BME280;63804;53.120;8.764;2022-12-10T05:32:25;100976.13;;;3.68;40.96
54920;BME280;63804;53.120;8.764;2022-12-10T05:34:50;100976.13;;;3.68;40.98
54920;BME280;63804;53.120;8.764;2022-12-10T05:37:16;100978.06;;;3.44;41.30
54920;BME280;63804;53.120;8.764;2022-12-10T05:39:42;100975.41;;;3.39;41.50
54920;BME280;63804;53.120;8.764;2022-12-10T05:42:07;100976.81;;;3.31;41.90
54920;BME280;63804;53.120;8.764;2022-12-10T05:44:33;100983.59;;;3.28;42.06
54920;BME280;63804;53.120;8.764;2022-12-10T05:46:59;100984.47;;;3.48;41.41
54920;BME280;63804;53.120;8.764;2022-12-10T05:49:24;100989.69;;;3.63;41.27
54920;BME280;63804;53.120;8.764;2022-12-10T05:51:50;100993.13;;;3.69;40.96
54920;BME280;63804;53.120;8.764;2022-12-10T05:54:16;100997.72;;;3.68;40.79
54920;BME280;63804;53.120;8.764;2022-12-10T05:56:41;101007.00;;;3.62;41.36
54920;BME280;63804;53.120;8.764;2022-12-10T05:59:07;101003.81;;;3.55;41.45
54920;BME280;63804;53.120;8.764;2022-12-10T06:01:34;101010.69;;;3.66;41.40
54920;BME280;63804;53.120;8.764;2022-12-10T06:04:02;101017.84;;;3.57;41.55
54920;BME280;63804;53.120;8.764;2022-12-10T06:06:31;101021.69;;;3.51;41.46
54920;BME280;63804;53.120;8.764;2022-12-10T06:08:57;101013.31;;;3.52;41.09
54920;BME280;63804;53.120;8.764;2022-12-10T06:11:24;101018.28;;;3.64;41.08
54920;BME280;63804;53.120;8.764;2022-12-10T06:13:52;101018.16;;;3.75;40.81
54920;BME280;63804;53.120;8.764;2022-12-10T06:16:18;101015.03;;;3.67;41.29
54920;BME280;63804;53.120;8.764;2022-12-10T06:18:50;101016.88;;;3.72;41.16
54920;BME280;63804;53.120;8.764;2022-12-10T06:21:17;101020.13;;;3.69;40.92
54920;BME280;63804;53.120;8.764;2022-12-10T06:23:43;101024.00;;;3.33;41.69
54920;BME280;63804;53.120;8.764;2022-12-10T06:26:14;101024.53;;;3.35;41.52
54920;BME280;63804;53.120;8.764;2022-12-10T06:28:41;101022.25;;;3.48;41.37
54920;BME280;63804;53.120;8.764;2022-12-10T06:31:07;101034.03;;;3.57;40.97
54920;BME280;63804;53.120;8.764;2022-12-10T06:33:33;101026.47;;;3.59;40.94
54920;BME280;63804;53.120;8.764;2022-12-10T06:35:59;101029.66;;;3.61;40.77
54920;BME280;63804;53.120;8.764;2022-12-10T06:38:25;101034.38;;;3.75;40.78
54920;BME280;63804;53.120;8.764;2022-12-10T06:40:50;101026.91;;;3.66;40.97
54920;BME280;63804;53.120;8.764;2022-12-10T06:43:16;101033.78;;;3.78;41.03
54920;BME280;63804;53.120;8.764;2022-12-10T06:45:42;101031.94;;;3.73;41.19
54920;BME280;63804;53.120;8.764;2022-12-10T06:48:08;101030.03;;;3.74;41.10
54920;BME280;63804;53.120;8.764;2022-12-10T06:50:35;101031.59;;;3.80;40.69
54920;BME280;63804;53.120;8.764;2022-12-10T06:53:00;101037.78;;;3.80;40.76
54920;BME280;63804;53.120;8.764;2022-12-10T06:55:26;101043.59;;;3.68;40.80
54920;BME280;63804;53.120;8.764;2022-12-10T06:57:53;101046.38;;;3.63;41.02
54920;BME280;63804;53.120;8.764;2022-12-10T07:00:19;101043.31;;;3.70;41.13
54920;BME280;63804;53.120;8.764;2022-12-10T07:02:46;101048.59;;;3.80;41.20
54920;BME280;63804;53.120;8.764;2022-12-10T07:05:12;101053.19;;;3.80;41.15
54920;BME280;63804;53.120;8.764;2022-12-10T07:07:37;101051.06;;;3.77;40.83
54920;BME280;63804;53.120;8.764;2022-12-10T07:10:04;101058.72;;;3.69;41.02
54920;BME280;63804;53.120;8.764;2022-12-10T07:12:30;101062.75;;;3.72;41.03
54920;BME280;63804;53.120;8.764;2022-12-10T07:14:55;101058.09;;;3.78;40.65
54920;BME280;63804;53.120;8.764;2022-12-10T07:17:21;101065.03;;;3.84;40.62
54920;BME280;63804;53.120;8.764;2022-12-10T07:19:47;101063.44;;;3.83;40.55
54920;BME280;63804;53.120;8.764;2022-12-10T07:22:12;101062.34;;;3.84;40.66
54920;BME280;63804;53.120;8.764;2022-12-10T07:24:38;101066.75;;;3.75;41.01
54920;BME280;63804;53.120;8.764;2022-12-10T07:27:05;101071.88;;;3.76;41.34
54920;BME280;63804;53.120;8.764;2022-12-10T07:29:31;101071.03;;;3.81;41.63
54920;BME280;63804;53.120;8.764;2022-12-10T07:31:57;101069.13;;;3.81;41.92
54920;BME280;63804;53.120;8.764;2022-12-10T07:34:23;101071.81;;;3.81;42.22
54920;BME280;63804;53.120;8.764;2022-12-10T07:36:48;101077.72;;;3.83;42.36
54920;BME280;63804;53.120;8.764;2022-12-10T07:39:14;101079.75;;;3.73;42.68
54920;BME280;63804;53.120;8.764;2022-12-10T07:41:52;101080.31;;;3.69;42.95
54920;BME280;63804;53.120;8.764;2022-12-10T07:44:22;101073.59;;;3.67;42.61
54920;BME280;63804;53.120;8.764;2022-12-10T07:46:49;101077.28;;;3.52;42.13
54920;BME280;63804;53.120;8.764;2022-12-10T07:49:16;101078.13;;;3.47;42.00
54920;BME280;63804;53.120;8.764;2022-12-10T07:51:46;101080.91;;;3.37;42.15
54920;BME280;63804;53.120;8.764;2022-12-10T07:54:12;101083.31;;;3.44;42.17
54920;BME280;63804;53.120;8.764;2022-12-10T07:56:38;101087.25;;;3.51;42.23
54920;BME280;63804;53.120;8.764;2022-12-10T07:59:04;101086.97;;;3.53;42.37
54920;BME280;63804;53.120;8.764;2022-12-10T08:01:30;101093.09;;;3.64;42.33
54920;BME280;63804;53.120;8.764;2022-12-10T08:03:56;101097.22;;;3.56;42.92
54920;BME280;63804;53.120;8.764;2022-12-10T08:06:23;101103.63;;;3.60;42.83
54920;BME280;63804;53.120;8.764;2022-12-10T08:08:49;101100.41;;;3.58;43.07
54920;BME280;63804;53.120;8.764;2022-12-10T08:11:16;101103.06;;;3.63;43.05
54920;BME280;63804;53.120;8.764;2022-12-10T08:13:43;101106.69;;;3.78;42.50
54920;BME280;63804;53.120;8.764;2022-12-10T08:16:16;101109.03;;;3.60;42.49
54920;BME280;63804;53.120;8.764;2022-12-10T08:18:42;101113.19;;;3.77;42.27
54920;BME280;63804;53.120;8.764;2022-12-10T08:21:19;101115.88;;;3.77;42.29
54920;BME280;63804;53.120;8.764;2022-12-10T08:23:45;101118.63;;;3.71;42.31
54920;BME280;63804;53.120;8.764;2022-12-10T08:26:13;101114.09;;;3.67;41.47
54920;BME280;63804;53.120;8.764;2022-12-10T08:28:40;101117.66;;;3.62;41.38
54920;BME280;63804;53.120;8.764;2022-12-10T08:31:07;101108.19;;;3.65;41.26
54920;BME280;63804;53.120;8.764;2022-12-10T08:33:34;101118.41;;;3.68;41.03
54920;BME280;63804;53.120;8.764;2022-12-10T08:36:05;101128.06;;;3.74;40.58
54920;BME280;63804;53.120;8.764;2022-12-10T08:38:33;101132.34;;;3.75;40.61
54920;BME280;63804;53.120;8.764;2022-12-10T08:40:59;101125.03;;;3.81;40.97
54920;BME280;63804;53.120;8.764;2022-12-10T08:43:25;101124.09;;;3.90;40.96
54920;BME280;63804;53.120;8.764;2022-12-10T08:45:50;101126.09;;;3.80;40.96
54920;BME280;63804;53.120;8.764;2022-12-10T08:48:16;101122.44;;;3.70;41.33
54920;BME280;63804;53.120;8.764;2022-12-10T08:50:42;101126.16;;;3.75;41.50
54920;BME280;63804;53.120;8.764;2022-12-10T08:53:08;101121.16;;;3.87;41.51
54920;BME280;63804;53.120;8.764;2022-12-10T08:55:38;101123.47;;;3.75;41.97
54920;BME280;63804;53.120;8.764;2022-12-10T08:58:04;101127.28;;;3.68;42.35
54920;BME280;63804;53.120;8.764;2022-12-10T09:00:30;101119.25;;;3.63;42.92
54920;BME280;63804;53.120;8.764;2022-12-10T09:02:55;101127.22;;;3.79;42.83
54920;BME280;63804;53.120;8.764;2022-12-10T09:05:21;101129.94;;;3.74;42.75
54920;BME280;63804;53.120;8.764;2022-12-10T09:07:47;101130.19;;;3.77;42.56
54920;BME280;63804;53.120;8.764;2022-12-10T09:10:12;101130.47;;;3.76;42.30
54920;BME280;63804;53.120;8.764;2022-12-10T09:12:39;101140.53;;;3.94;42.32
54920;BME280;63804;53.120;8.764;2022-12-10T09:15:05;101138.97;;;4.12;42.14
54920;BME280;63804;53.120;8.764;2022-12-10T09:17:31;101151.66;;;4.12;41.49
54920;BME280;63804;53.120;8.764;2022-12-10T09:19:59;101152.50;;;4.12;40.61
54920;BME280;63804;53.120;8.764;2022-12-10T09:22:25;101145.19;;;4.13;40.58
54920;BME280;63804;53.120;8.764;2022-12-10T09:24:51;101151.53;;;4.22;40.20
54920;BME280;63804;53.120;8.764;2022-12-10T09:27:16;101159.91;;;4.25;39.99
54920;BME280;63804;53.120;8.764;2022-12-10T09:29:42;101153.72;;;4.20;40.06
54920;BME280;63804;53.120;8.764;2022-12-10T09:32:08;101155.91;;;3.94;40.80
54920;BME280;63804;53.120;8.764;2022-12-10T09:34:33;101159.66;;;3.98;41.07
54920;BME280;63804;53.120;8.764;2022-12-10T09:36:59;101157.41;;;4.05;40.90
54920;BME280;63804;53.120;8.764;2022-12-10T09:39:25;101156.41;;;4.01;40.64
54920;BME280;63804;53.120;8.764;2022-12-10T09:44:47;101152.72;;;3.92;40.70
54920;BME280;63804;53.120;8.764;2022-12-10T09:47:16;101154.16;;;3.84;40.96
54920;BME280;63804;53.120;8.764;2022-12-10T09:52:28;101154.44;;;4.06;40.77
54920;BME280;63804;53.120;8.764;2022-12-10T09:54:59;101151.78;;;4.01;40.98
54920;BME280;63804;53.120;8.764;2022-12-10T09:57:44;101153.22;;;3.94;40.77
54920;BME280;63804;53.120;8.764;2022-12-10T10:02:56;101154.31;;;3.93;39.83
54920;BME280;63804;53.120;8.764;2022-12-10T10:05:51;101148.34;;;3.96;39.10
54920;BME280;63804;53.120;8.764;2022-12-10T10:08:28;101153.41;;;4.02;39.97
54920;BME280;63804;53.120;8.764;2022-12-10T10:10:55;101155.63;;;3.95;40.21
54920;BME280;63804;53.120;8.764;2022-12-10T10:15:51;101154.94;;;4.08;40.33
54920;BME280;63804;53.120;8.764;2022-12-10T10:18:34;101162.88;;;4.00;40.35
54920;BME280;63804;53.120;8.764;2022-12-10T10:23:37;101160.94;;;4.05;39.71
54920;BME280;63804;53.120;8.764;2022-12-10T10:26:03;101156.28;;;4.11;39.46
54920;BME280;63804;53.120;8.764;2022-12-10T10:28:28;101162.63;;;4.20;39.20
54920;BME280;63804;53.120;8.764;2022-12-10T10:30:54;101164.97;;;4.27;39.20
54920;BME280;63804;53.120;8.764;2022-12-10T10:33:20;101162.25;;;4.32;39.01
54920;BME280;63804;53.120;8.764;2022-12-10T10:35:53;101160.75;;;4.21;39.31
54920;BME280;63804;53.120;8.764;2022-12-10T10:38:26;101164.47;;;4.25;39.39
54920;BME280;63804;53.120;8.764;2022-12-10T10:40:55;101164.53;;;4.20;39.56
54920;BME280;63804;53.120;8.764;2022-12-10T10:43:33;101165.13;;;4.17;39.46
54920;BME280;63804;53.120;8.764;2022-12-10T10:46:21;101171.78;;;4.00;39.56
54920;BME280;63804;53.120;8.764;2022-12-10T10:48:48;101171.91;;;4.14;39.83
54920;BME280;63804;53.120;8.764;2022-12-10T10:53:54;101157.06;;;4.12;39.51
54920;BME280;63804;53.120;8.764;2022-12-10T10:56:30;101157.53;;;4.19;39.52
54920;BME280;63804;53.120;8.764;2022-12-10T11:01:50;101152.66;;;4.40;38.68
54920;BME280;63804;53.120;8.764;2022-12-10T11:04:24;101150.75;;;4.40;39.04
54920;BME280;63804;53.120;8.764;2022-12-10T11:06:56;101151.88;;;4.39;38.92
54920;BME280;63804;53.120;8.764;2022-12-10T11:09:28;101150.81;;;4.35;38.91
54920;BME280;63804;53.120;8.764;2022-12-10T11:12:10;101150.31;;;4.33;38.35
54920;BME280;63804;53.120;8.764;2022-12-10T11:14:46;101146.13;;;4.22;38.75
54920;BME280;63804;53.120;8.764;2022-12-10T11:19:52;101143.06;;;4.28;38.49
54920;BME280;63804;53.120;8.764;2022-12-10T11:22:36;101135.25;;;4.27;38.14
54920;BME280;63804;53.120;8.764;2022-12-10T11:25:02;101137.16;;;4.26;38.56
54920;BME280;63804;53.120;8.764;2022-12-10T11:30:17;101133.81;;;4.35;38.62
54920;BME280;63804;53.120;8.764;2022-12-10T11:38:17;101128.41;;;4.35;38.72
54920;BME280;63804;53.120;8.764;2022-12-10T11:40:55;101136.38;;;4.26;38.84
54920;BME280;63804;53.120;8.764;2022-12-10T11:49:56;101136.22;;;4.36;38.18
54920;BME280;63804;53.120;8.764;2022-12-10T11:52:17;101136.00;;;4.33;38.60
54920;BME280;63804;53.120;8.764;2022-12-10T12:00:16;101137.75;;;4.23;38.88
54920;BME280;63804;53.120;8.764;2022-12-10T12:08:51;101133.59;;;4.31;37.97
54920;BME280;63804;53.120;8.764;2022-12-10T12:14:22;101140.56;;;4.13;38.43
54920;BME280;63804;53.120;8.764;2022-12-10T12:17:20;101141.19;;;4.29;38.41
54920;BME280;63804;53.120;8.764;2022-12-10T12:19:53;101134.31;;;4.37;38.63
54920;BME280;63804;53.120;8.764;2022-12-10T12:22:29;101133.03;;;4.34;38.54
54920;BME280;63804;53.120;8.764;2022-12-10T12:25:49;101142.44;;;4.37;38.49
54920;BME280;63804;53.120;8.764;2022-12-10T12:30:39;101139.00;;;4.31;38.53
54920;BME280;63804;53.120;8.764;2022-12-10T12:33:29;101140.63;;;4.32;38.57
54920;BME280;63804;53.120;8.764;2022-12-10T12:36:06;101140.56;;;4.37;38.58
54920;BME280;63804;53.120;8.764;2022-12-10T12:38:58;101136.22;;;4.36;38.74
54920;BME280;63804;53.120;8.764;2022-12-10T12:44:26;101136.88;;;4.28;39.07
54920;BME280;63804;53.120;8.764;2022-12-10T12:50:03;101145.50;;;4.30;39.38
54920;BME280;63804;53.120;8.764;2022-12-10T12:52:40;101149.16;;;4.39;39.13
54920;BME280;63804;53.120;8.764;2022-12-10T13:00:41;101146.31;;;4.31;39.82
54920;BME280;63804;53.120;8.764;2022-12-10T13:03:41;101141.78;;;4.26;39.56
54920;BME280;63804;53.120;8.764;2022-12-10T13:08:59;101151.66;;;4.12;40.00
54920;BME280;63804;53.120;8.764;2022-12-10T13:22:11;101149.13;;;4.20;40.00
54920;BME280;63804;53.120;8.764;2022-12-10T13:27:32;101156.06;;;4.07;40.12
54920;BME280;63804;53.120;8.764;2022-12-10T13:32:52;101160.25;;;4.19;40.20
54920;BME280;63804;53.120;8.764;2022-12-10T13:35:44;101162.13;;;4.18;40.03
54920;BME280;63804;53.120;8.764;2022-12-10T13:38:22;101165.47;;;4.10;40.18
54920;BME280;63804;53.120;8.764;2022-12-10T13:41:04;101178.41;;;4.13;40.25
54920;BME280;63804;53.120;8.764;2022-12-10T13:43:54;101168.09;;;4.15;40.17
54920;BME280;63804;53.120;8.764;2022-12-10T13:46:59;101175.53;;;4.04;40.21
54920;BME280;63804;53.120;8.764;2022-12-10T13:49:28;101177.16;;;4.05;40.44
54920;BME280;63804;53.120;8.764;2022-12-10T14:00:29;101187.41;;;4.03;40.05
54920;BME280;63804;53.120;8.764;2022-12-10T14:08:03;101183.75;;;3.94;40.07
54920;BME280;63804;53.120;8.764;2022-12-10T14:10:35;101191.44;;;4.06;39.55
54920;BME280;63804;53.120;8.764;2022-12-10T14:13:03;101190.31;;;4.12;39.55
54920;BME280;63804;53.120;8.764;2022-12-10T14:15:30;101194.19;;;4.25;39.47
54920;BME280;63804;53.120;8.764;2022-12-10T14:18:11;101196.97;;;3.96;39.87
54920;BME280;63804;53.120;8.764;2022-12-10T14:20:42;101188.31;;;3.99;40.20
54920;BME280;63804;53.120;8.764;2022-12-10T14:23:23;101192.38;;;3.96;40.12
54920;BME280;63804;53.120;8.764;2022-12-10T14:26:20;101193.59;;;4.09;40.18
54920;BME280;63804;53.120;8.764;2022-12-10T14:29:16;101199.34;;;4.02;40.35
54920;BME280;63804;53.120;8.764;2022-12-10T14:31:46;101203.63;;;4.03;40.61
54920;BME280;63804;53.120;8.764;2022-12-10T14:34:15;101207.38;;;4.07;40.34
54920;BME280;63804;53.120;8.764;2022-12-10T14:36:51;101210.72;;;3.99;40.45
54920;BME280;63804;53.120;8.764;2022-12-10T14:39:20;101215.25;;;4.04;40.47
54920;BME280;63804;53.120;8.764;2022-12-10T14:41:50;101218.41;;;4.11;40.28
54920;BME280;63804;53.120;8.764;2022-12-10T14:44:17;101209.69;;;4.19;40.14
54920;BME280;63804;53.120;8.764;2022-12-10T14:46:47;101211.16;;;4.06;40.32
54920;BME280;63804;53.120;8.764;2022-12-10T14:49:21;101211.28;;;3.96;40.69
54920;BME280;63804;53.120;8.764;2022-12-10T14:51:48;101210.19;;;3.97;40.41
54920;BME280;63804;53.120;8.764;2022-12-10T14:54:32;101218.28;;;3.97;40.69
54920;BME280;63804;53.120;8.764;2022-12-10T14:56:59;101208.47;;;4.06;40.54
54920;BME280;63804;53.120;8.764;2022-12-10T14:59:33;101207.31;;;4.13;40.43
54920;BME280;63804;53.120;8.764;2022-12-10T15:02:10;101210.88;;;4.08;40.39
54920;BME280;63804;53.120;8.764;2022-12-10T15:04:43;101213.69;;;3.98;40.83
54920;BME280;63804;53.120;8.764;2022-12-10T15:07:14;101214.78;;;3.97;40.58
54920;BME280;63804;53.120;8.764;2022-12-10T15:09:41;101216.28;;;3.84;40.87
54920;BME280;63804;53.120;8.764;2022-12-10T15:12:42;101214.53;;;3.93;40.88